sensor_id;sensor_type;location;lat;lon;timestamp;temperature;humidity
6178;DHT22;3122;48.208;11.174;2024-01-11T00:00:02;-4.80;1.00
6178;DHT22;3122;48.208;11.174;2024-01-11T00:05:03;-5.00;1.00
6178;DHT22;3122;48.208;11.174;2024-01-11T00:10:04;-5.00;1.00
6178;DHT22;3122;48.208;11.174;2024-01-11T00:15:05;-4.90;1.00
6178;DHT22;3122;48.208;11.174;2024-01-11T00:20:06;-4.90;1.00
6178;DHT22;3122;48.208;11.174;2024-01-11T00:25:07;-4.90;1.00
6178;DHT22;3122;48.208;11.174;2024-01-11T00:30:08;-4.90;1.00
6178;DHT22;3122;48.208;11.174;2024-01-11T00:35:09;-5.00;1.00
6178;DHT22;3122;48.208;11.174;2024-01-11T00:40:10;-4.80;1.00
6178;DHT22;3122;48.208;11.174;2024-01-11T00:45:11;-5.00;1.00
6178;DHT22;3122;48.208;11.174;2024-01-11T00:50:11;-5.10;1.00
6178;DHT22;3122;48.208;11.174;2024-01-11T00:55:12;-5.10;1.00
6178;DHT22;3122;48.208;11.174;2024-01-11T01:00:13;-5.10;1.00
6178;DHT22;3122;48.208;11.174;2024-01-11T01:05:14;-5.10;1.00
6178;DHT22;3122;48.208;11.174;2024-01-11T01:10:15;-5.30;1.00
6178;DHT22;3122;48.208;11.174;2024-01-11T01:15:15;-5.40;1.00
6178;DHT22;3122;48.208;11.174;2024-01-11T01:20:16;-5.40;1.00
6178;DHT22;3122;48.208;11.174;2024-01-11T01:25:16;-5.40;1.00
6178;DHT22;3122;48.208;11.174;2024-01-11T01:30:17;-5.30;1.00
6178;DHT22;3122;48.208;11.174;2024-01-11T01:35:17;-5.30;1.00
6178;DHT22;3122;48.208;11.174;2024-01-11T01:40:18;-5.30;1.00
6178;DHT22;3122;48.208;11.174;2024-01-11T01:45:18;-5.20;1.00
6178;DHT22;3122;48.208;11.174;2024-01-11T01:50:19;-5.20;1.00
6178;DHT22;3122;48.208;11.174;2024-01-11T01:55:22;-5.00;1.00
6178;DHT22;3122;48.208;11.174;2024-01-11T02:00:23;-5.00;1.00
6178;DHT22;3122;48.208;11.174;2024-01-11T02:05:24;-5.20;1.00
6178;DHT22;3122;48.208;11.174;2024-01-11T02:10:25;-5.30;1.00
6178;DHT22;3122;48.208;11.174;2024-01-11T02:15:25;-5.10;1.00
6178;DHT22;3122;48.208;11.174;2024-01-11T02:20:26;-5.00;1.00
6178;DHT22;3122;48.208;11.174;2024-01-11T02:25:26;-5.20;1.00
6178;DHT22;3122;48.208;11.174;2024-01-11T02:30:27;-5.20;1.00
6178;DHT22;3122;48.208;11.174;2024-01-11T02:35:28;-5.30;1.00
6178;DHT22;3122;48.208;11.174;2024-01-11T02:40:29;-5.30;1.00
6178;DHT22;3122;48.208;11.174;2024-01-11T02:45:30;-5.30;1.00
6178;DHT22;3122;48.208;11.174;2024-01-11T02:50:30;-5.30;1.00
6178;DHT22;3122;48.208;11.174;2024-01-11T02:55:31;-5.30;1.00
6178;DHT22;3122;48.208;11.174;2024-01-11T03:00:31;-5.40;1.00
6178;DHT22;3122;48.208;11.174;2024-01-11T03:05:32;-5.30;1.00
6178;DHT22;3122;48.208;11.174;2024-01-11T03:10:32;-5.50;1.00
6178;DHT22;3122;48.208;11.174;2024-01-11T03:15:33;-5.50;1.00
6178;DHT22;3122;48.208;11.174;2024-01-11T03:20:34;-5.60;1.00
6178;DHT22;3122;48.208;11.174;2024-01-11T03:25:34;-5.60;1.00
6178;DHT22;3122;48.208;11.174;2024-01-11T03:30:35;-5.60;1.00
6178;DHT22;3122;48.208;11.174;2024-01-11T03:35:35;-5.50;1.00
6178;DHT22;3122;48.208;11.174;2024-01-11T03:40:39;-5.50;1.00
6178;DHT22;3122;48.208;11.174;2024-01-11T03:45:39;-5.50;1.00
6178;DHT22;3122;48.208;11.174;2024-01-11T03:50:40;-5.40;1.00
6178;DHT22;3122;48.208;11.174;2024-01-11T03:55:40;-5.40;1.00
6178;DHT22;3122;48.208;11.174;2024-01-11T04:00:41;-5.40;1.00
6178;DHT22;3122;48.208;11.174;2024-01-11T04:05:41;-5.30;1.00
6178;DHT22;3122;48.208;11.174;2024-01-11T04:10:42;-5.40;1.00
6178;DHT22;3122;48.208;11.174;2024-01-11T04:15:42;-5.60;1.00
6178;DHT22;3122;48.208;11.174;2024-01-11T04:20:43;-5.90;1.00
6178;DHT22;3122;48.208;11.174;2024-01-11T04:25:44;-5.80;1.00
6178;DHT22;3122;48.208;11.174;2024-01-11T04:30:44;-5.60;1.00
6178;DHT22;3122;48.208;11.174;2024-01-11T04:35:45;-5.70;1.00
6178;DHT22;3122;48.208;11.174;2024-01-11T04:40:45;-5.60;1.00
6178;DHT22;3122;48.208;11.174;2024-01-11T04:45:46;-5.60;1.00
6178;DHT22;3122;48.208;11.174;2024-01-11T04:50:47;-5.60;1.00
6178;DHT22;3122;48.208;11.174;2024-01-11T04:55:47;-5.60;1.00
6178;DHT22;3122;48.208;11.174;2024-01-11T05:00:49;-5.50;1.00
6178;DHT22;3122;48.208;11.174;2024-01-11T05:05:49;-5.50;1.00
6178;DHT22;3122;48.208;11.174;2024-01-11T05:10:50;-5.80;1.00
6178;DHT22;3122;48.208;11.174;2024-01-11T05:15:50;-5.70;1.00
6178;DHT22;3122;48.208;11.174;2024-01-11T05:20:51;-5.90;1.00
6178;DHT22;3122;48.208;11.174;2024-01-11T05:25:51;-5.80;1.00
6178;DHT22;3122;48.208;11.174;2024-01-11T05:30:52;-5.90;1.00
6178;DHT22;3122;48.208;11.174;2024-01-11T05:35:52;-5.90;1.00
6178;DHT22;3122;48.208;11.174;2024-01-11T05:40:54;-6.00;1.00
6178;DHT22;3122;48.208;11.174;2024-01-11T05:45:54;-6.00;1.00
6178;DHT22;3122;48.208;11.174;2024-01-11T05:50:55;-6.10;1.00
6178;DHT22;3122;48.208;11.174;2024-01-11T05:55:55;-6.10;1.00
6178;DHT22;3122;48.208;11.174;2024-01-11T06:00:56;-6.00;1.00
6178;DHT22;3122;48.208;11.174;2024-01-11T06:05:57;-5.90;1.00
6178;DHT22;3122;48.208;11.174;2024-01-11T06:10:58;-5.80;1.00
6178;DHT22;3122;48.208;11.174;2024-01-11T06:15:58;-5.80;1.00
6178;DHT22;3122;48.208;11.174;2024-01-11T06:20:59;-5.70;1.00
6178;DHT22;3122;48.208;11.174;2024-01-11T06:26:01;-5.80;1.00
6178;DHT22;3122;48.208;11.174;2024-01-11T06:31:09;-5.80;1.00
6178;DHT22;3122;48.208;11.174;2024-01-11T06:36:10;-5.80;1.00
6178;DHT22;3122;48.208;11.174;2024-01-11T06:41:10;-5.80;1.00
6178;DHT22;3122;48.208;11.174;2024-01-11T06:46:11;-5.90;1.00
6178;DHT22;3122;48.208;11.174;2024-01-11T06:51:20;-5.90;1.00
6178;DHT22;3122;48.208;11.174;2024-01-11T06:56:21;-6.00;1.00
6178;DHT22;3122;48.208;11.174;2024-01-11T07:01:21;-6.00;1.00
6178;DHT22;3122;48.208;11.174;2024-01-11T07:06:22;-5.80;1.00
6178;DHT22;3122;48.208;11.174;2024-01-11T07:11:23;-5.90;1.00
6178;DHT22;3122;48.208;11.174;2024-01-11T07:16:23;-5.90;1.00
6178;DHT22;3122;48.208;11.174;2024-01-11T07:21:24;-5.80;1.00
6178;DHT22;3122;48.208;11.174;2024-01-11T07:26:31;-5.90;1.00
6178;DHT22;3122;48.208;11.174;2024-01-11T07:31:32;-5.80;1.00
6178;DHT22;3122;48.208;11.174;2024-01-11T07:36:32;-5.80;1.00
6178;DHT22;3122;48.208;11.174;2024-01-11T07:41:33;-5.80;1.00
6178;DHT22;3122;48.208;11.174;2024-01-11T07:46:34;-5.70;1.00
6178;DHT22;3122;48.208;11.174;2024-01-11T07:51:34;-5.80;1.00
6178;DHT22;3122;48.208;11.174;2024-01-11T07:56:35;-5.80;1.00
6178;DHT22;3122;48.208;11.174;2024-01-11T08:01:35;-5.70;1.00
6178;DHT22;3122;48.208;11.174;2024-01-11T08:06:36;-5.50;1.00
6178;DHT22;3122;48.208;11.174;2024-01-11T08:11:36;-5.60;1.00
6178;DHT22;3122;48.208;11.174;2024-01-11T08:16:37;-5.60;1.00
6178;DHT22;3122;48.208;11.174;2024-01-11T08:21:38;-5.60;1.00
6178;DHT22;3122;48.208;11.174;2024-01-11T08:26:38;-5.80;1.00
6178;DHT22;3122;48.208;11.174;2024-01-11T08:31:39;-5.60;1.00
6178;DHT22;3122;48.208;11.174;2024-01-11T08:36:39;-5.60;1.00
6178;DHT22;3122;48.208;11.174;2024-01-11T08:41:40;-5.50;1.00
6178;DHT22;3122;48.208;11.174;2024-01-11T08:46:41;-5.50;1.00
6178;DHT22;3122;48.208;11.174;2024-01-11T08:51:41;-5.70;1.00
6178;DHT22;3122;48.208;11.174;2024-01-11T08:56:42;-5.50;1.00
6178;DHT22;3122;48.208;11.174;2024-01-11T09:01:43;-5.50;1.00
6178;DHT22;3122;48.208;11.174;2024-01-11T09:06:44;-5.40;1.00
6178;DHT22;3122;48.208;11.174;2024-01-11T09:11:44;-5.40;1.00
6178;DHT22;3122;48.208;11.174;2024-01-11T09:16:45;-5.20;1.00
6178;DHT22;3122;48.208;11.174;2024-01-11T09:21:46;-5.20;1.00
6178;DHT22;3122;48.208;11.174;2024-01-11T09:26:46;-5.10;1.00
6178;DHT22;3122;48.208;11.174;2024-01-11T09:31:50;-5.10;1.00
6178;DHT22;3122;48.208;11.174;2024-01-11T09:36:50;-5.10;1.00
6178;DHT22;3122;48.208;11.174;2024-01-11T09:41:59;-5.00;1.00
6178;DHT22;3122;48.208;11.174;2024-01-11T09:47:01;-4.90;1.00
6178;DHT22;3122;48.208;11.174;2024-01-11T09:52:04;-4.80;1.00
6178;DHT22;3122;48.208;11.174;2024-01-11T09:57:05;-4.90;1.00
6178;DHT22;3122;48.208;11.174;2024-01-11T10:02:10;-4.90;1.00
6178;DHT22;3122;48.208;11.174;2024-01-11T10:07:12;-4.80;1.00
6178;DHT22;3122;48.208;11.174;2024-01-11T10:12:13;-4.80;1.00
6178;DHT22;3122;48.208;11.174;2024-01-11T10:17:14;-4.60;1.00
6178;DHT22;3122;48.208;11.174;2024-01-11T10:22:15;-4.40;1.00
6178;DHT22;3122;48.208;11.174;2024-01-11T10:27:17;-4.50;1.00
6178;DHT22;3122;48.208;11.174;2024-01-11T10:32:17;-4.40;1.00
6178;DHT22;3122;48.208;11.174;2024-01-11T10:37:18;-4.50;1.00
6178;DHT22;3122;48.208;11.174;2024-01-11T10:42:21;-4.40;1.00
6178;DHT22;3122;48.208;11.174;2024-01-11T10:47:25;-4.70;1.00
6178;DHT22;3122;48.208;11.174;2024-01-11T10:52:36;-4.30;1.00
6178;DHT22;3122;48.208;11.174;2024-01-11T10:57:40;-4.10;1.00
6178;DHT22;3122;48.208;11.174;2024-01-11T11:02:41;-4.20;1.00
6178;DHT22;3122;48.208;11.174;2024-01-11T11:07:43;-4.30;1.00
6178;DHT22;3122;48.208;11.174;2024-01-11T11:12:45;-4.20;1.00
6178;DHT22;3122;48.208;11.174;2024-01-11T11:17:46;-4.10;1.00
6178;DHT22;3122;48.208;11.174;2024-01-11T11:23:10;-4.00;1.00
6178;DHT22;3122;48.208;11.174;2024-01-11T11:28:12;-4.00;1.00
6178;DHT22;3122;48.208;11.174;2024-01-11T11:33:17;-4.20;1.00
6178;DHT22;3122;48.208;11.174;2024-01-11T11:38:23;-4.30;1.00
6178;DHT22;3122;48.208;11.174;2024-01-11T11:43:24;-4.10;1.00
6178;DHT22;3122;48.208;11.174;2024-01-11T11:53:37;-4.10;1.00
6178;DHT22;3122;48.208;11.174;2024-01-11T11:58:38;-4.00;1.00
6178;DHT22;3122;48.208;11.174;2024-01-11T12:03:44;-4.00;1.00
6178;DHT22;3122;48.208;11.174;2024-01-11T12:08:53;-3.80;1.00
6178;DHT22;3122;48.208;11.174;2024-01-11T12:13:54;-3.70;1.00
6178;DHT22;3122;48.208;11.174;2024-01-11T12:18:56;-3.70;1.00
6178;DHT22;3122;48.208;11.174;2024-01-11T12:23:56;-3.60;1.00
6178;DHT22;3122;48.208;11.174;2024-01-11T12:28:57;-3.30;1.00
6178;DHT22;3122;48.208;11.174;2024-01-11T12:33:58;-3.20;1.00
6178;DHT22;3122;48.208;11.174;2024-01-11T12:38:59;-3.20;1.00
6178;DHT22;3122;48.208;11.174;2024-01-11T12:43:59;-3.30;1.00
6178;DHT22;3122;48.208;11.174;2024-01-11T12:49:00;-3.10;1.00
6178;DHT22;3122;48.208;11.174;2024-01-11T12:54:00;-3.50;1.00
6178;DHT22;3122;48.208;11.174;2024-01-11T12:59:08;-3.50;1.00
6178;DHT22;3122;48.208;11.174;2024-01-11T13:04:09;-3.30;1.00
6178;DHT22;3122;48.208;11.174;2024-01-11T13:09:10;-3.20;1.00
6178;DHT22;3122;48.208;11.174;2024-01-11T13:14:11;-3.20;1.00
6178;DHT22;3122;48.208;11.174;2024-01-11T13:19:19;-3.20;1.00
6178;DHT22;3122;48.208;11.174;2024-01-11T13:24:19;-3.40;1.00
6178;DHT22;3122;48.208;11.174;2024-01-11T13:29:20;-3.30;1.00
6178;DHT22;3122;48.208;11.174;2024-01-11T13:34:20;-3.30;1.00
6178;DHT22;3122;48.208;11.174;2024-01-11T13:39:21;-3.30;1.00
6178;DHT22;3122;48.208;11.174;2024-01-11T13:44:24;-3.20;1.00
6178;DHT22;3122;48.208;11.174;2024-01-11T13:49:24;-3.30;1.00
6178;DHT22;3122;48.208;11.174;2024-01-11T13:54:25;-3.40;1.00
6178;DHT22;3122;48.208;11.174;2024-01-11T13:59:26;-3.60;1.00
6178;DHT22;3122;48.208;11.174;2024-01-11T14:04:26;-3.60;1.00
6178;DHT22;3122;48.208;11.174;2024-01-11T14:09:27;-3.70;1.00
6178;DHT22;3122;48.208;11.174;2024-01-11T14:14:28;-3.80;1.00
6178;DHT22;3122;48.208;11.174;2024-01-11T14:19:28;-3.80;1.00
6178;DHT22;3122;48.208;11.174;2024-01-11T14:24:29;-3.80;1.00
6178;DHT22;3122;48.208;11.174;2024-01-11T14:29:29;-3.60;1.00
6178;DHT22;3122;48.208;11.174;2024-01-11T14:34:30;-3.60;1.00
6178;DHT22;3122;48.208;11.174;2024-01-11T14:39:30;-3.80;1.00
6178;DHT22;3122;48.208;11.174;2024-01-11T14:44:31;-3.90;1.00
6178;DHT22;3122;48.208;11.174;2024-01-11T14:49:31;-4.00;1.00
6178;DHT22;3122;48.208;11.174;2024-01-11T14:54:33;-4.30;1.00
6178;DHT22;3122;48.208;11.174;2024-01-11T14:59:34;-4.00;1.00
6178;DHT22;3122;48.208;11.174;2024-01-11T15:04:35;-4.00;1.00
6178;DHT22;3122;48.208;11.174;2024-01-11T15:09:36;-3.90;1.00
6178;DHT22;3122;48.208;11.174;2024-01-11T15:14:37;-4.00;1.00
6178;DHT22;3122;48.208;11.174;2024-01-11T15:19:37;-3.90;1.00
6178;DHT22;3122;48.208;11.174;2024-01-11T15:24:39;-3.90;1.00
6178;DHT22;3122;48.208;11.174;2024-01-11T15:29:40;-4.10;1.00
6178;DHT22;3122;48.208;11.174;2024-01-11T15:34:42;-4.30;1.00
6178;DHT22;3122;48.208;11.174;2024-01-11T15:39:42;-4.40;1.00
6178;DHT22;3122;48.208;11.174;2024-01-11T15:44:44;-4.30;1.00
6178;DHT22;3122;48.208;11.174;2024-01-11T15:49:44;-4.30;1.00
6178;DHT22;3122;48.208;11.174;2024-01-11T15:54:45;-4.30;1.00
6178;DHT22;3122;48.208;11.174;2024-01-11T15:59:46;-4.30;1.00
6178;DHT22;3122;48.208;11.174;2024-01-11T16:04:47;-4.30;1.00
6178;DHT22;3122;48.208;11.174;2024-01-11T16:09:47;-4.20;1.00
6178;DHT22;3122;48.208;11.174;2024-01-11T16:14:50;-4.20;1.00
6178;DHT22;3122;48.208;11.174;2024-01-11T16:19:51;-4.20;1.00
6178;DHT22;3122;48.208;11.174;2024-01-11T16:24:52;-4.20;1.00
6178;DHT22;3122;48.208;11.174;2024-01-11T16:29:53;-4.20;1.00
6178;DHT22;3122;48.208;11.174;2024-01-11T16:34:53;-4.20;1.00
6178;DHT22;3122;48.208;11.174;2024-01-11T16:39:54;-4.20;1.00
6178;DHT22;3122;48.208;11.174;2024-01-11T16:44:55;-4.10;1.00
6178;DHT22;3122;48.208;11.174;2024-01-11T16:49:55;-4.00;1.00
6178;DHT22;3122;48.208;11.174;2024-01-11T16:54:56;-4.10;1.00
6178;DHT22;3122;48.208;11.174;2024-01-11T16:59:57;-4.20;1.00
6178;DHT22;3122;48.208;11.174;2024-01-11T17:04:57;-4.20;1.00
6178;DHT22;3122;48.208;11.174;2024-01-11T17:09:58;-4.20;1.00
6178;DHT22;3122;48.208;11.174;2024-01-11T17:14:59;-4.30;1.00
6178;DHT22;3122;48.208;11.174;2024-01-11T17:19:59;-4.30;1.00
6178;DHT22;3122;48.208;11.174;2024-01-11T17:25:00;-4.30;1.00
6178;DHT22;3122;48.208;11.174;2024-01-11T17:30:01;-4.40;1.00
6178;DHT22;3122;48.208;11.174;2024-01-11T17:35:02;-4.40;1.00
6178;DHT22;3122;48.208;11.174;2024-01-11T17:40:03;-4.40;1.00
6178;DHT22;3122;48.208;11.174;2024-01-11T17:45:04;-4.30;1.00
6178;DHT22;3122;48.208;11.174;2024-01-11T17:50:05;-4.20;1.00
6178;DHT22;3122;48.208;11.174;2024-01-11T17:55:06;-4.40;1.00
6178;DHT22;3122;48.208;11.174;2024-01-11T18:00:07;-4.40;1.00
6178;DHT22;3122;48.208;11.174;2024-01-11T18:05:08;-4.60;1.00
6178;DHT22;3122;48.208;11.174;2024-01-11T18:10:09;-4.50;1.00
6178;DHT22;3122;48.208;11.174;2024-01-11T18:15:09;-4.70;1.00
6178;DHT22;3122;48.208;11.174;2024-01-11T18:20:10;-4.60;1.00
6178;DHT22;3122;48.208;11.174;2024-01-11T18:25:11;-4.70;1.00
6178;DHT22;3122;48.208;11.174;2024-01-11T18:30:12;-4.80;1.00
6178;DHT22;3122;48.208;11.174;2024-01-11T18:35:13;-4.80;1.00
6178;DHT22;3122;48.208;11.174;2024-01-11T18:40:14;-4.90;1.00
6178;DHT22;3122;48.208;11.174;2024-01-11T18:45:14;-5.00;1.00
6178;DHT22;3122;48.208;11.174;2024-01-11T18:50:15;-5.10;1.00
6178;DHT22;3122;48.208;11.174;2024-01-11T18:55:16;-5.30;1.00
6178;DHT22;3122;48.208;11.174;2024-01-11T19:00:18;-5.40;1.00
6178;DHT22;3122;48.208;11.174;2024-01-11T19:05:18;-5.20;1.00
6178;DHT22;3122;48.208;11.174;2024-01-11T19:10:19;-5.20;1.00
6178;DHT22;3122;48.208;11.174;2024-01-11T19:15:21;-5.30;1.00
6178;DHT22;3122;48.208;11.174;2024-01-11T19:20:21;-5.20;1.00
6178;DHT22;3122;48.208;11.174;2024-01-11T19:25:22;-5.20;1.00
6178;DHT22;3122;48.208;11.174;2024-01-11T19:30:22;-5.20;1.00
6178;DHT22;3122;48.208;11.174;2024-01-11T19:35:23;-5.20;1.00
6178;DHT22;3122;48.208;11.174;2024-01-11T19:40:24;-5.20;1.00
6178;DHT22;3122;48.208;11.174;2024-01-11T19:45:24;-5.10;1.00
6178;DHT22;3122;48.208;11.174;2024-01-11T19:50:25;-5.00;1.00
6178;DHT22;3122;48.208;11.174;2024-01-11T19:55:26;-5.10;1.00
6178;DHT22;3122;48.208;11.174;2024-01-11T20:00:26;-5.20;1.00
6178;DHT22;3122;48.208;11.174;2024-01-11T20:05:27;-5.20;1.00
6178;DHT22;3122;48.208;11.174;2024-01-11T20:10:28;-5.20;1.00
6178;DHT22;3122;48.208;11.174;2024-01-11T20:15:29;-5.30;1.00
6178;DHT22;3122;48.208;11.174;2024-01-11T20:20:30;-5.40;1.00
6178;DHT22;3122;48.208;11.174;2024-01-11T20:25:30;-5.30;1.00
6178;DHT22;3122;48.208;11.174;2024-01-11T20:30:32;-5.30;1.00
6178;DHT22;3122;48.208;11.174;2024-01-11T20:35:32;-5.30;1.00
6178;DHT22;3122;48.208;11.174;2024-01-11T20:40:33;-5.40;1.00
6178;DHT22;3122;48.208;11.174;2024-01-11T20:45:34;-5.40;1.00
6178;DHT22;3122;48.208;11.174;2024-01-11T20:50:34;-5.50;1.00
6178;DHT22;3122;48.208;11.174;2024-01-11T20:55:35;-5.50;1.00
6178;DHT22;3122;48.208;11.174;2024-01-11T21:00:35;-5.40;1.00
6178;DHT22;3122;48.208;11.174;2024-01-11T21:05:37;-5.50;1.00
6178;DHT22;3122;48.208;11.174;2024-01-11T21:10:37;-5.70;1.00
6178;DHT22;3122;48.208;11.174;2024-01-11T21:15:38;-5.40;1.00
6178;DHT22;3122;48.208;11.174;2024-01-11T21:20:39;-5.50;1.00
6178;DHT22;3122;48.208;11.174;2024-01-11T21:25:40;-5.70;1.00
6178;DHT22;3122;48.208;11.174;2024-01-11T21:30:41;-5.60;1.00
6178;DHT22;3122;48.208;11.174;2024-01-11T21:35:41;-5.70;1.00
6178;DHT22;3122;48.208;11.174;2024-01-11T21:40:43;-5.80;1.00
6178;DHT22;3122;48.208;11.174;2024-01-11T21:45:43;-5.70;1.00
6178;DHT22;3122;48.208;11.174;2024-01-11T21:50:44;-5.80;1.00
6178;DHT22;3122;48.208;11.174;2024-01-11T21:55:44;-5.60;1.00
6178;DHT22;3122;48.208;11.174;2024-01-11T22:00:45;-5.70;1.00
6178;DHT22;3122;48.208;11.174;2024-01-11T22:05:46;-5.60;1.00
6178;DHT22;3122;48.208;11.174;2024-01-11T22:10:47;-5.60;1.00
6178;DHT22;3122;48.208;11.174;2024-01-11T22:15:48;-5.50;1.00
6178;DHT22;3122;48.208;11.174;2024-01-11T22:20:48;-5.40;1.00
6178;DHT22;3122;48.208;11.174;2024-01-11T22:25:49;-5.50;1.00
6178;DHT22;3122;48.208;11.174;2024-01-11T22:30:50;-5.50;1.00
6178;DHT22;3122;48.208;11.174;2024-01-11T22:35:51;-5.30;1.00
6178;DHT22;3122;48.208;11.174;2024-01-11T22:40:51;-5.40;1.00
6178;DHT22;3122;48.208;11.174;2024-01-11T22:45:52;-5.40;1.00
6178;DHT22;3122;48.208;11.174;2024-01-11T22:50:53;-5.40;1.00
6178;DHT22;3122;48.208;11.174;2024-01-11T22:55:53;-5.40;1.00
6178;DHT22;3122;48.208;11.174;2024-01-11T23:00:54;-5.30;1.00
6178;DHT22;3122;48.208;11.174;2024-01-11T23:05:57;-5.40;1.00
6178;DHT22;3122;48.208;11.174;2024-01-11T23:10:58;-5.40;1.00
6178;DHT22;3122;48.208;11.174;2024-01-11T23:15:58;-5.30;1.00
6178;DHT22;3122;48.208;11.174;2024-01-11T23:21:01;-5.20;1.00
6178;DHT22;3122;48.208;11.174;2024-01-11T23:26:01;-5.20;1.00
6178;DHT22;3122;48.208;11.174;2024-01-11T23:31:02;-5.20;1.00
6178;DHT22;3122;48.208;11.174;2024-01-11T23:36:03;-5.00;1.00
6178;DHT22;3122;48.208;11.174;2024-01-11T23:41:03;-5.20;1.00
6178;DHT22;3122;48.208;11.174;2024-01-11T23:46:04;-5.10;1.00
6178;DHT22;3122;48.208;11.174;2024-01-11T23:51:04;-5.20;1.00
6178;DHT22;3122;48.208;11.174;2024-01-11T23:56:05;-5.10;1.00
